M I D A S
Marine Information and Data Acquisition System
Tripno 1077 of the Zeeleeuw from 2006-04-27 07:06:49 to 2006-04-27 13:13:56
Back to CruiseResearch ActivitiesStationsMapUnderway DataData graphs

EquipmentUnitsComment
TimeDGPSUTC
LatitudeDGPSDM.mWGS84
LongitudeDGPSDM.mWGS84
HeadingGyrodeg 
SOGDGPSknotsSpeed over ground
COGDGPSdegCourse over ground
DepthEcho soundermeters200 kHz
Missing or incorrect values are displayed as -999
Navigation data collected by the RV Zeeleeuw from 2006-04-27 06:12:50 to 2006-04-27 13:24:31
Time Latitude Longitude Heading SOG COG Depth
2006-04-27 06:13:55 51°13.602 2°56.097 125.5 -999 273 -999
2006-04-27 06:14:55 51°13.602 2°56.099 125.5 -999 20 -999
2006-04-27 06:15:56 51°13.6 2°56.099 125.5 -999 37 -999
2006-04-27 06:16:55 51°13.601 2°56.099 125.6 -999 216 -999
2006-04-27 06:17:52 51°13.601 2°56.099 125.7 -999 357 -999
2006-04-27 06:18:52 51°13.601 2°56.1 125.9 -999 222 -999
2006-04-27 06:19:52 51°13.602 2°56.1 126 -999 220 -999
2006-04-27 06:20:52 51°13.602 2°56.1 126.2 -999 233 -999
2006-04-27 06:21:52 51°13.602 2°56.1 126.5 -999 216 -999
2006-04-27 06:22:52 51°13.602 2°56.1 126.5 -999 34 -999
2006-04-27 06:23:52 51°13.602 2°56.1 126.5 -999 238 -999
2006-04-27 06:24:52 51°13.602 2°56.1 126.8 -999 77 -999
2006-04-27 06:25:52 51°13.601 2°56.099 126.8 -999 4 -999
2006-04-27 06:26:52 51°13.601 2°56.099 127 -999 212 -999
2006-04-27 06:27:52 51°13.602 2°56.1 127 -999 326 -999
2006-04-27 06:28:52 51°13.602 2°56.1 127.1 -999 21 -999
2006-04-27 06:29:52 51°13.602 2°56.099 128 -999 166 -999
2006-04-27 06:30:52 51°13.602 2°56.099 128.1 -999 212 -999
2006-04-27 06:31:52 51°13.601 2°56.1 128.1 -999 233 -999
2006-04-27 06:32:52 51°13.601 2°56.1 128.1 -999 209 -999
2006-04-27 06:33:52 51°13.602 2°56.1 128.1 -999 23 -999
2006-04-27 06:34:52 51°13.601 2°56.1 128.2 -999 18 -999
2006-04-27 06:35:52 51°13.601 2°56.099 128.3 -999 216 -999
2006-04-27 06:36:52 51°13.601 2°56.099 128.4 -999 210 -999
2006-04-27 06:37:52 51°13.601 2°56.099 128.4 -999 207 -999
2006-04-27 06:38:52 51°13.601 2°56.099 128.4 -999 28 -999
2006-04-27 06:39:52 51°13.601 2°56.098 128.4 -999 166 -999
2006-04-27 06:40:52 51°13.602 2°56.098 128.4 -999 208 -999
2006-04-27 06:41:52 51°13.601 2°56.099 128.4 -999 225 -999
2006-04-27 06:42:52 51°13.602 2°56.099 128.3 -999 16 -999
2006-04-27 06:43:52 51°13.602 2°56.099 128 -999 246 -999
2006-04-27 06:44:52 51°13.602 2°56.099 128.1 -999 202 -999
2006-04-27 06:45:52 51°13.602 2°56.1 128.5 -999 36 -999
2006-04-27 06:46:52 51°13.602 2°56.099 127.9 -999 138 -999
2006-04-27 06:47:52 51°13.602 2°56.099 124.9 -999 207 -999
2006-04-27 06:48:52 51°13.601 2°56.099 119.9 0.1 207 -999
2006-04-27 06:49:52 51°13.601 2°56.1 114.1 0.1 189 -999
2006-04-27 06:50:52 51°13.607 2°56.074 113.2 2.3 292 -999
2006-04-27 06:51:52 51°13.629 2°55.985 114 4.4 290 -999
2006-04-27 06:52:52 51°13.659 2°55.878 127.2 4.7 301 -999
2006-04-27 06:53:52 51°13.706 2°55.781 133.4 4.2 310 -999
2006-04-27 06:54:52 51°13.733 2°55.713 109.8 0.9 289 8.9
2006-04-27 06:55:51 51°13.731 2°55.716 60.2 1.3 230 4.9
2006-04-27 06:56:52 51°13.731 2°55.711 25.7 1.6 16 -999
2006-04-27 06:57:50 51°13.783 2°55.681 333.4 5.5 330 8.1
2006-04-27 06:58:52 51°13.889 2°55.594 340.4 7.6 335 -999
2006-04-27 06:59:52 51°14.01 2°55.509 341.6 8.1 337 -999
2006-04-27 07:00:52 51°14.132 2°55.417 337.8 8.2 333 -999
2006-04-27 07:01:52 51°14.247 2°55.288 322.2 8.6 316 -999
2006-04-27 07:02:52 51°14.339 2°55.108 312.8 8.9 309 -999
2006-04-27 07:03:51 51°14.451 2°54.936 329.5 10.5 321 8.4
2006-04-27 07:04:52 51°14.612 2°54.763 340.7 12 330 7.6
2006-04-27 07:05:52 51°14.793 2°54.613 346.1 12.3 336 7.5
2006-04-27 07:06:51 51°14.973 2°54.471 340.8 12.3 330 7.1
2006-04-27 07:07:52 51°15.132 2°54.263 330.1 12.3 321 7.1
2006-04-27 07:08:52 51°15.311 2°54.108 345.2 12.3 333 7.6
2006-04-27 07:09:52 51°15.484 2°53.919 336.7 12.8 325 8.4
2006-04-27 07:10:52 51°15.659 2°53.73 337.3 12.7 325 8.9
2006-04-27 07:11:51 51°15.83 2°53.542 339.8 12.7 327 9.5
2006-04-27 07:12:51 51°15.996 2°53.328 334 12.8 322 10
2006-04-27 07:13:52 51°16.176 2°53.138 339.6 12.8 329 10.3
2006-04-27 07:14:52 51°16.36 2°52.966 339.5 12.9 329 10.5
2006-04-27 07:15:52 51°16.548 2°52.815 341.2 12.6 332 10.2
2006-04-27 07:16:51 51°16.726 2°52.66 337.4 12.3 328 8.8
2006-04-27 07:17:52 51°16.908 2°52.514 347 12 339 8.6
2006-04-27 07:18:52 51°17.098 2°52.428 356.4 12 348 8.4
2006-04-27 07:19:52 51°17.286 2°52.321 346 12.2 337 9
2006-04-27 07:20:51 51°17.468 2°52.194 341.1 12.3 328 9
2006-04-27 07:21:52 51°17.629 2°51.978 326 12.6 313 9
2006-04-27 07:22:52 51°17.751 2°51.699 307.1 13.2 294 8.7
2006-04-27 07:23:52 51°17.83 2°51.368 304.1 13.4 294 9
2006-04-27 07:24:52 51°17.926 2°51.041 305.9 13.8 294 10.2
2006-04-27 07:25:52 51°18.017 2°50.705 304.7 13.8 294 11.4
2006-04-27 07:26:52 51°18.11 2°50.371 305.4 13.8 294 12.2
2006-04-27 07:27:52 51°18.199 2°50.033 305.9 13.8 293 12.8
2006-04-27 07:28:51 51°18.285 2°49.695 305 14 292 12.2
2006-04-27 07:29:52 51°18.377 2°49.35 305.5 13.7 294 10.2
2006-04-27 07:30:52 51°18.473 2°49.022 305.9 13.7 295 9.5
2006-04-27 07:31:52 51°18.572 2°48.692 307.3 13.8 296 9.8
2006-04-27 07:32:52 51°18.662 2°48.353 303.4 13.9 294 11.7
2006-04-27 07:33:52 51°18.756 2°48.012 304 14.1 292 13.8
2006-04-27 07:34:52 51°18.85 2°47.667 304.9 14.2 293 16.3
2006-04-27 07:35:51 51°18.941 2°47.323 304.3 14.4 293 17.9
2006-04-27 07:36:52 51°19.037 2°46.967 305 14.4 293 19.8
2006-04-27 07:37:52 51°19.131 2°46.615 305.5 14.4 293 20
2006-04-27 07:38:52 51°19.224 2°46.26 304.8 14.6 293 19.7
2006-04-27 07:39:52 51°19.317 2°45.906 304.8 14.5 293 16.4
2006-04-27 07:40:52 51°19.413 2°45.555 305.3 14.3 293 10.4
2006-04-27 07:41:51 51°19.51 2°45.217 306.6 14.3 296 11
2006-04-27 07:42:52 51°19.604 2°44.857 302.2 14.4 292 20.2
2006-04-27 07:43:51 51°19.692 2°44.506 302.9 14.5 292 21.4
2006-04-27 07:44:49 51°19.779 2°44.161 302.9 14.5 292 22.2
2006-04-27 07:45:52 51°19.872 2°43.786 303.6 14.5 293 23.4
2006-04-27 07:46:52 51°19.964 2°43.43 304.1 14.5 292 25.4
2006-04-27 07:47:52 51°20.055 2°43.072 303 14.6 291 25.3
2006-04-27 07:48:52 51°20.148 2°42.713 303.1 14.6 292 23.9
2006-04-27 07:49:52 51°20.239 2°42.354 303.4 14.5 292 21.2
2006-04-27 07:50:52 51°20.328 2°41.993 300.4 14.6 289 17.8
2006-04-27 07:51:52 51°20.412 2°41.635 301.4 14.1 291 19.6
2006-04-27 07:52:51 51°20.497 2°41.297 300.4 14 291 21.5
2006-04-27 07:53:52 51°20.559 2°40.928 289.3 14.3 279 26.6
2006-04-27 07:54:52 51°20.598 2°40.553 289 14.3 280 25.3
2006-04-27 07:55:52 51°20.631 2°40.178 284.3 14.3 274 25.7
2006-04-27 07:56:52 51°20.651 2°39.799 286.4 14.2 277 24.7
2006-04-27 07:57:52 51°20.678 2°39.42 286.7 14.4 277 24.5
2006-04-27 07:58:52 51°20.705 2°39.039 285.7 14.5 275 23.6
2006-04-27 07:59:52 51°20.73 2°38.655 285.4 14.6 275 22.1
2006-04-27 08:00:52 51°20.756 2°38.271 286.6 14.4 277 23
2006-04-27 08:01:51 51°20.785 2°37.898 286.5 14.4 277 22.7
2006-04-27 08:02:52 51°20.815 2°37.512 287 14.4 277 23.2
2006-04-27 08:03:52 51°20.846 2°37.131 287 14.5 277 21.7
2006-04-27 08:04:51 51°20.876 2°36.756 287.3 14.5 277 21.6
2006-04-27 08:05:52 51°20.906 2°36.367 288.1 14.5 278 23.5
2006-04-27 08:06:52 51°20.949 2°35.988 296.1 14.3 286 25.8
2006-04-27 08:07:52 51°21.018 2°35.623 297.3 14.4 286 28.6
2006-04-27 08:08:51 51°21.088 2°35.264 300 14.5 288 30.2
2006-04-27 08:09:51 51°21.185 2°34.914 309.5 14.3 297 30.9
2006-04-27 08:10:51 51°21.288 2°34.569 307 14.4 295 29.5
2006-04-27 08:11:52 51°21.393 2°34.22 308.1 14.2 296 29.7
2006-04-27 08:12:51 51°21.496 2°33.893 309.7 13.8 300 31.5
2006-04-27 08:13:52 51°21.624 2°33.587 315.8 13.5 304 27.3
2006-04-27 08:14:51 51°21.748 2°33.299 314.2 13.3 304 22.5
2006-04-27 08:15:52 51°21.872 2°32.996 314.6 13.4 304 24
2006-04-27 08:16:51 51°21.991 2°32.698 313.7 13.7 303 28.6
2006-04-27 08:17:52 51°22.118 2°32.386 316.4 13.6 307 30.5
2006-04-27 08:18:51 51°22.284 2°32.166 335.5 13.2 322 29.4
2006-04-27 08:19:51 51°22.456 2°31.947 332.3 13.3 316 29.2
2006-04-27 08:20:52 51°22.563 2°31.617 296.4 14.3 284 29.8
2006-04-27 08:21:52 51°22.6 2°31.236 289.3 14.5 280 29.6
2006-04-27 08:22:51 51°22.631 2°30.858 284.4 14.6 276 30.4
2006-04-27 08:23:51 51°22.657 2°30.47 284.9 14.7 276 29.6
2006-04-27 08:24:51 51°22.68 2°30.084 282.3 14.6 275 31.4
2006-04-27 08:25:52 51°22.698 2°29.694 281.6 14.5 273 32.3
2006-04-27 08:26:52 51°22.706 2°29.312 273.6 14.5 264 32.4
2006-04-27 08:27:52 51°22.668 2°28.924 271.4 14.7 264 33.2
2006-04-27 08:28:51 51°22.642 2°28.539 271.8 14.9 263 33
2006-04-27 08:29:52 51°22.617 2°28.139 273.1 14.9 264 34
2006-04-27 08:30:52 51°22.591 2°27.744 273.6 14.9 265 33.8
2006-04-27 08:31:52 51°22.571 2°27.348 274.5 15 264 33.6
2006-04-27 08:32:52 51°22.554 2°26.953 277.5 14.9 267 33.9
2006-04-27 08:33:52 51°22.545 2°26.556 281.5 14.8 272 32.4
2006-04-27 08:34:52 51°22.599 2°26.187 304.2 14 291 29.6
2006-04-27 08:35:52 51°22.738 2°25.919 335.6 12.9 322 21.2
2006-04-27 08:36:52 51°22.916 2°25.725 338.6 13 325 19
2006-04-27 08:37:52 51°23.109 2°25.584 349.6 12.8 337 28
2006-04-27 08:38:51 51°23.303 2°25.474 359.3 12.3 351 32.4
2006-04-27 08:39:52 51°23.51 2°25.449 6 12.3 355 32.7
2006-04-27 08:40:52 51°23.714 2°25.452 11.3 12.2 1 32.7
2006-04-27 08:41:51 51°23.913 2°25.45 11 12.1 -999 32.8
2006-04-27 08:42:52 51°24.117 2°25.446 10.1 12 359 33.3
2006-04-27 08:43:52 51°24.315 2°25.439 9.2 11.9 357 33.1
2006-04-27 08:44:52 51°24.511 2°25.429 10.4 11.8 358 33.7
2006-04-27 08:45:52 51°24.706 2°25.419 9.7 11.7 358 35
2006-04-27 08:46:52 51°24.902 2°25.414 11.7 11.8 -999 34.1
2006-04-27 08:47:52 51°25.097 2°25.415 11.6 11.8 -999 33.5
2006-04-27 08:48:52 51°25.293 2°25.418 10.2 11.8 358 31.1
2006-04-27 08:49:52 51°25.489 2°25.418 11.6 11.9 1 30.2
2006-04-27 08:50:51 51°25.684 2°25.422 10.6 11.9 -999 29.7
2006-04-27 08:51:52 51°25.886 2°25.424 12.3 11.9 -999 24.8
2006-04-27 08:52:52 51°26.084 2°25.43 11.6 12 2 25.4
2006-04-27 08:53:52 51°26.281 2°25.463 15.9 11.9 6 30
2006-04-27 08:54:51 51°26.475 2°25.497 15.7 11.9 7 33.8
2006-04-27 08:55:52 51°26.674 2°25.533 15.9 11.9 7 32.3
2006-04-27 08:56:52 51°26.872 2°25.564 14.5 11.9 7 33.9
2006-04-27 08:57:52 51°27.069 2°25.604 15.2 11.9 7 34.1
2006-04-27 08:58:52 51°27.266 2°25.641 14.7 11.9 7 34.2
2006-04-27 08:59:52 51°27.464 2°25.674 12.1 12 3 34.4
2006-04-27 09:00:51 51°27.659 2°25.7 12.9 11.9 5 34.5
2006-04-27 09:01:52 51°27.859 2°25.731 13.2 12 7 34.6
2006-04-27 09:02:52 51°28.058 2°25.764 13.6 12 6 36.7
2006-04-27 09:03:52 51°28.257 2°25.798 13.3 12.1 6 36.6
2006-04-27 09:04:52 51°28.457 2°25.833 12.9 12.1 6 35.6
2006-04-27 09:05:52 51°28.656 2°25.869 13.8 12 7 35.2
2006-04-27 09:06:52 51°28.858 2°25.866 5.9 12.1 358 33
2006-04-27 09:07:51 51°29.055 2°25.865 6.9 12 -999 31.2
2006-04-27 09:08:52 51°29.259 2°25.866 7.1 12.1 -999 31.8
2006-04-27 09:09:52 51°29.458 2°25.866 7.1 12 -999 28.1
2006-04-27 09:10:52 51°29.658 2°25.882 11.3 12.1 6 31.6
2006-04-27 09:11:52 51°29.857 2°25.913 11.9 12 6 29.9
2006-04-27 09:12:52 51°30.056 2°25.94 12.3 11.9 6 27.9
2006-04-27 09:13:52 51°30.248 2°26.01 21.9 11.9 18 29.5
2006-04-27 09:14:51 51°30.429 2°26.121 25.7 11.8 21 32
2006-04-27 09:15:52 51°30.615 2°26.234 26.2 11.7 21 32.9
2006-04-27 09:16:52 51°30.796 2°26.337 25.3 11.6 21 32.7
2006-04-27 09:17:52 51°30.977 2°26.443 24.6 11.5 19 37.3
2006-04-27 09:18:52 51°31.159 2°26.55 25.7 11.7 20 37.9
2006-04-27 09:19:52 51°31.344 2°26.657 25.2 11.8 20 38.9
2006-04-27 09:20:52 51°31.528 2°26.768 24.5 11.9 20 39
2006-04-27 09:21:52 51°31.712 2°26.878 24.9 11.8 20 39.1
2006-04-27 09:22:52 51°31.896 2°26.993 28.1 11.9 25 39.6
2006-04-27 09:23:52 51°32.076 2°27.123 27.4 11.9 23 39.6
2006-04-27 09:24:52 51°32.258 2°27.255 28 12 24 39.7
2006-04-27 09:25:51 51°32.436 2°27.385 29 12 25 39.1
2006-04-27 09:26:52 51°32.621 2°27.518 28.1 11.9 24 38.7
2006-04-27 09:27:52 51°32.802 2°27.651 27.3 12 24 38.2
2006-04-27 09:28:51 51°32.981 2°27.78 27.4 12 25 36
2006-04-27 09:29:52 51°33.165 2°27.918 28.5 12.1 24 36.1
2006-04-27 09:30:51 51°33.346 2°28.05 28.4 12.1 25 38.8
2006-04-27 09:31:52 51°33.53 2°28.197 30.5 12.1 24 38.5
2006-04-27 09:32:52 51°33.71 2°28.341 29.4 12.1 26 35.4
2006-04-27 09:33:52 51°33.889 2°28.484 30.2 12 28 37.1
2006-04-27 09:34:50 51°34.064 2°28.62 29.7 12.1 25 34.4
2006-04-27 09:35:52 51°34.249 2°28.767 30.3 12.1 27 36.4
2006-04-27 09:36:52 51°34.429 2°28.909 29.7 12.1 27 36.4
2006-04-27 09:37:51 51°34.607 2°29.049 29.4 12.1 27 36.6
2006-04-27 09:38:52 51°34.791 2°29.193 29 12.1 26 33.8
2006-04-27 09:39:52 51°34.971 2°29.334 28.6 12 25 32.5
2006-04-27 09:40:51 51°35.143 2°29.493 33.2 12 29 31.2
2006-04-27 09:41:52 51°35.318 2°29.658 32 12 29 36.4
2006-04-27 09:42:52 51°35.491 2°29.82 33 12.1 30 37.7
2006-04-27 09:43:52 51°35.663 2°29.982 32.5 11.9 31 37.2
2006-04-27 09:44:52 51°35.836 2°30.147 34.1 12.1 31 36.4
2006-04-27 09:45:51 51°36.006 2°30.306 33.1 12.1 30 36.5
2006-04-27 09:46:52 51°36.182 2°30.472 33.3 12.1 30 36.3
2006-04-27 09:47:52 51°36.356 2°30.634 33 12.1 31 36.7
2006-04-27 09:48:52 51°36.527 2°30.801 33.1 12 31 37.1
2006-04-27 09:49:51 51°36.699 2°30.961 33 12.1 31 37.8
2006-04-27 09:50:52 51°36.875 2°31.133 34 12.1 32 39
2006-04-27 09:51:52 51°37.049 2°31.297 33.4 12.2 31 39.6
2006-04-27 09:52:52 51°37.223 2°31.459 32.6 12 30 40
2006-04-27 09:53:51 51°37.395 2°31.622 32.6 12.1 30 40.7
2006-04-27 09:54:52 51°37.573 2°31.788 33.6 12.3 31 40.3
2006-04-27 09:55:52 51°37.746 2°31.956 33.3 12.2 30 39.7
2006-04-27 09:56:52 51°37.923 2°32.121 34 12.3 31 40.5
2006-04-27 09:57:52 51°38.099 2°32.288 33.5 12.4 31 42.1
2006-04-27 09:58:52 51°38.275 2°32.454 33.8 12.3 31 42.1
2006-04-27 09:59:51 51°38.448 2°32.622 33.2 12.4 31 43.6
2006-04-27 10:00:52 51°38.628 2°32.794 33.3 12.4 30 43
2006-04-27 10:01:51 51°38.804 2°32.957 33.2 12.4 30 43.4
2006-04-27 10:02:52 51°38.984 2°33.128 33 12.4 30 42.8
2006-04-27 10:03:51 51°39.159 2°33.292 34.6 12.4 31 41.7
2006-04-27 10:04:51 51°39.338 2°33.458 33.7 12.4 30 41.2
2006-04-27 10:05:51 51°39.517 2°33.624 31.9 12.5 29 38.6
2006-04-27 10:06:51 51°39.697 2°33.79 34.1 12.5 30 44.2
2006-04-27 10:07:52 51°39.882 2°33.957 33.6 12.6 31 42.7
2006-04-27 10:08:51 51°40.058 2°34.123 33.3 12.5 30 39.6
2006-04-27 10:09:51 51°40.24 2°34.29 33.1 12.6 30 38.1
2006-04-27 10:10:52 51°40.424 2°34.465 34 12.6 34 37.4
2006-04-27 10:11:52 51°40.548 2°34.737 63.5 12.8 62 37.1
2006-04-27 10:12:52 51°40.631 2°35.053 76.3 13 78 35.8
2006-04-27 10:13:51 51°40.648 2°35.398 91.2 13.2 90 33.9
2006-04-27 10:14:52 51°40.641 2°35.761 94.7 13.4 93 23.6
2006-04-27 10:15:52 51°40.609 2°36.117 102 13.6 101 20.5
2006-04-27 10:16:51 51°40.574 2°36.471 101.1 13.6 100 27.1
2006-04-27 10:17:52 51°40.51 2°36.824 113.8 13.5 113 34.2
2006-04-27 10:18:51 51°40.426 2°37.155 112.9 13.6 112 38.5
2006-04-27 10:19:51 51°40.342 2°37.493 112.6 13.5 110 41.6
2006-04-27 10:20:51 51°40.26 2°37.831 114.2 13.5 112 42.4
2006-04-27 10:21:52 51°40.176 2°38.173 113.4 13.6 112 40.8
2006-04-27 10:22:51 51°40.098 2°38.505 112.5 13.6 111 43.5
2006-04-27 10:23:52 51°40.016 2°38.849 113.1 13.6 111 41.8
2006-04-27 10:24:52 51°39.937 2°39.191 113.9 13.6 112 40.9
2006-04-27 10:25:52 51°39.849 2°39.525 115 13.6 112 40.9
2006-04-27 10:26:52 51°39.762 2°39.863 115.3 13.7 113 37.6
2006-04-27 10:27:52 51°39.678 2°40.201 115.9 13.7 112 36.9
2006-04-27 10:28:52 51°39.589 2°40.538 116.6 13.7 115 38.4
2006-04-27 10:29:52 51°39.415 2°40.756 161.3 13.5 157 37.1
2006-04-27 10:30:52 51°39.194 2°40.788 185.3 13.4 179 33.5
2006-04-27 10:31:52 51°38.972 2°40.773 195.3 13.3 190 30.3
2006-04-27 10:32:52 51°38.752 2°40.711 194.8 13.4 189 26.4
2006-04-27 10:33:51 51°38.535 2°40.659 194.6 13.5 189 28.1
2006-04-27 10:34:52 51°38.313 2°40.6 198.6 13.3 193 30.3
2006-04-27 10:35:52 51°38.101 2°40.512 202.5 13.2 197 29.1
2006-04-27 10:36:52 51°37.894 2°40.395 209.2 13.1 203 30.6
2006-04-27 10:37:52 51°37.712 2°40.214 230 12.8 226 32.3
2006-04-27 10:38:51 51°37.657 2°39.906 273.7 12.5 268 36.2
2006-04-27 10:39:51 51°37.649 2°39.568 272.7 12.7 266 39.6
2006-04-27 10:40:52 51°37.636 2°39.223 271.9 12.7 267 42.2
2006-04-27 10:41:52 51°37.62 2°38.883 270.8 12.8 265 40.8
2006-04-27 10:42:51 51°37.602 2°38.549 271 12.7 265 41.1
2006-04-27 10:43:51 51°37.581 2°38.21 270.1 12.7 264 36.6
2006-04-27 10:44:52 51°37.578 2°37.868 280.5 12.7 275 36.8
2006-04-27 10:45:51 51°37.586 2°37.535 279.2 12.6 273 39.1
2006-04-27 10:46:51 51°37.583 2°37.196 272.2 12.8 266 40.5
2006-04-27 10:47:52 51°37.569 2°36.849 272.3 12.8 266 41.7
2006-04-27 10:48:52 51°37.535 2°36.515 264.1 12.6 258 41.2
2006-04-27 10:49:51 51°37.495 2°36.189 263.8 12.7 258 39.9
2006-04-27 10:50:51 51°37.457 2°35.857 264 12.6 258 38.4
2006-04-27 10:51:51 51°37.421 2°35.525 265.5 12.5 261 39
2006-04-27 10:52:52 51°37.387 2°35.193 264 12.3 259 35.5
2006-04-27 10:53:52 51°37.337 2°34.877 257.7 12.1 252 30.7
2006-04-27 10:54:52 51°37.271 2°34.575 252.7 11.9 246 25.7
2006-04-27 10:55:52 51°37.195 2°34.285 253 11.6 247 14.7
2006-04-27 10:56:52 51°37.112 2°34.004 242.4 11.9 236 29.6
2006-04-27 10:57:52 51°36.942 2°33.845 202.7 12.5 195 31.2
2006-04-27 10:58:52 51°36.743 2°33.746 206.1 12.5 199 32.4
2006-04-27 10:59:52 51°36.544 2°33.645 203.6 12.6 196 33
2006-04-27 11:00:51 51°36.348 2°33.546 203.8 12.5 197 34.4
2006-04-27 11:01:52 51°36.147 2°33.442 204.4 12.5 198 34
2006-04-27 11:02:52 51°35.948 2°33.34 204.4 12.6 198 35.2
2006-04-27 11:03:52 51°35.75 2°33.235 204.4 12.5 199 35.2
2006-04-27 11:04:52 51°35.553 2°33.129 203.7 12.5 199 34.5
2006-04-27 11:05:51 51°35.359 2°33.022 204.3 12.5 199 33.7
2006-04-27 11:06:52 51°35.159 2°32.915 203.6 12.5 198 31.9
2006-04-27 11:07:52 51°34.961 2°32.811 204.6 12.5 199 31.1
2006-04-27 11:08:51 51°34.768 2°32.71 201 12.4 194 28.3
2006-04-27 11:09:51 51°34.565 2°32.635 198.9 12.6 193 27.9
2006-04-27 11:10:51 51°34.358 2°32.581 193.1 12.6 187 26.5
2006-04-27 11:11:52 51°34.146 2°32.547 188.9 12.7 182 30.4
2006-04-27 11:12:52 51°33.934 2°32.535 188.9 12.7 183 28.7
2006-04-27 11:13:52 51°33.724 2°32.516 188.8 12.6 183 31.5
2006-04-27 11:14:52 51°33.514 2°32.496 188.7 12.6 183 32.1
2006-04-27 11:15:51 51°33.307 2°32.48 187.8 12.5 182 30.3
2006-04-27 11:16:52 51°33.096 2°32.463 188 12.5 182 29.2
2006-04-27 11:17:52 51°32.889 2°32.441 188.4 12.4 183 30.3
2006-04-27 11:18:52 51°32.682 2°32.419 189 12.5 183 31.1
2006-04-27 11:19:52 51°32.475 2°32.393 190.8 12.4 186 29.4
2006-04-27 11:20:52 51°32.269 2°32.387 185.8 12.4 181 35.6
2006-04-27 11:21:51 51°32.067 2°32.382 187.7 12.3 182 36.8
2006-04-27 11:22:52 51°31.86 2°32.368 189.9 12.1 185 38.2
2006-04-27 11:23:51 51°31.663 2°32.34 189.5 12.2 184 37.5
2006-04-27 11:24:52 51°31.459 2°32.323 182.7 12.2 174 37.4
2006-04-27 11:25:52 51°31.272 2°32.471 149.5 13 140 37.6
2006-04-27 11:26:52 51°31.1 2°32.687 152.2 13 145 36
2006-04-27 11:27:52 51°30.922 2°32.888 152.5 13.1 145 34.8
2006-04-27 11:28:52 51°30.743 2°33.088 153.2 13.1 145 26.8
2006-04-27 11:29:51 51°30.564 2°33.288 152.9 13.4 144 22.3
2006-04-27 11:30:52 51°30.379 2°33.503 153.1 13.6 144 21
2006-04-27 11:31:52 51°30.192 2°33.712 154.2 13.7 144 18.9
2006-04-27 11:32:51 51°30.009 2°33.93 156.7 13.9 146 22.6
2006-04-27 11:33:52 51°29.82 2°34.147 151.5 13.7 143 32.6
2006-04-27 11:34:52 51°29.641 2°34.366 149.2 13.5 141 39.2
2006-04-27 11:35:52 51°29.466 2°34.588 150.1 13.4 142 40.6
2006-04-27 11:36:51 51°29.298 2°34.81 150.5 13.3 142 41.1
2006-04-27 11:37:52 51°29.124 2°35.035 149.6 13.3 140 38.9
2006-04-27 11:38:52 51°28.954 2°35.262 150.2 13.4 140 37.5
2006-04-27 11:39:51 51°28.789 2°35.488 149.8 13.3 139 37
2006-04-27 11:40:51 51°28.618 2°35.717 149.4 13.4 140 34.7
2006-04-27 11:41:52 51°28.441 2°35.949 148.2 13.6 139 27.2
2006-04-27 11:42:52 51°28.266 2°36.178 149 13.6 139 29.8
2006-04-27 11:43:52 51°28.092 2°36.408 151.2 13.4 141 36.5
2006-04-27 11:44:52 51°27.92 2°36.633 150.3 13.4 141 38.1
2006-04-27 11:45:52 51°27.748 2°36.859 148.9 13.3 140 37.3
2006-04-27 11:46:52 51°27.578 2°37.083 148.9 13.3 140 34.8
2006-04-27 11:47:52 51°27.405 2°37.3 151.6 13.2 141 34.3
2006-04-27 11:48:52 51°27.233 2°37.515 153.6 13.1 142 34.9
2006-04-27 11:49:52 51°27.063 2°37.736 152.6 13.2 142 34.8
2006-04-27 11:50:52 51°26.89 2°37.956 152.6 13.3 142 36
2006-04-27 11:51:52 51°26.715 2°38.168 156 13.1 146 35.6
2006-04-27 11:52:51 51°26.532 2°38.343 159.3 13 149 35
2006-04-27 11:53:52 51°26.341 2°38.528 159.6 13.1 150 34.8
2006-04-27 11:54:51 51°26.156 2°38.703 160.2 13.1 151 36.3
2006-04-27 11:55:52 51°25.963 2°38.883 159 13.2 149 38.4
2006-04-27 11:56:52 51°25.775 2°39.061 160.2 13.2 150 36.3
2006-04-27 11:57:51 51°25.592 2°39.228 158 12.9 148 33.6
2006-04-27 11:58:51 51°25.404 2°39.394 162.2 12.8 153 32.6
2006-04-27 11:59:51 51°25.215 2°39.551 161.2 12.8 153 31
2006-04-27 12:00:52 51°25.022 2°39.711 161.6 12.9 153 27.7
2006-04-27 12:01:51 51°24.834 2°39.864 161.5 13 152 29.8
2006-04-27 12:02:52 51°24.639 2°40.017 165.2 12.7 156 29.3
2006-04-27 12:03:51 51°24.449 2°40.152 164.7 12.8 156 28.2
2006-04-27 12:04:52 51°24.251 2°40.294 164.3 12.8 155 27
2006-04-27 12:05:51 51°24.057 2°40.413 170.5 12.7 161 30.7
2006-04-27 12:06:51 51°23.858 2°40.526 168.8 12.7 160 32.1
2006-04-27 12:07:51 51°23.656 2°40.605 178.3 12.4 170 31.5
2006-04-27 12:08:51 51°23.451 2°40.654 180.3 12.2 172 31.8
2006-04-27 12:09:52 51°23.251 2°40.703 179.5 11.9 171 31.9
2006-04-27 12:10:52 51°23.055 2°40.753 179.8 12 170 31.8
2006-04-27 12:11:52 51°22.858 2°40.802 180 12 171 32.2
2006-04-27 12:12:52 51°22.66 2°40.854 179.9 12 171 31.6
2006-04-27 12:13:52 51°22.461 2°40.904 180.4 12.1 171 31.5
2006-04-27 12:14:52 51°22.263 2°40.96 178.5 12.2 169 30.8
2006-04-27 12:15:52 51°22.062 2°40.994 182.3 12.3 174 30.9
2006-04-27 12:16:52 51°21.858 2°41.033 181.5 12.3 173 28.4
2006-04-27 12:17:52 51°21.655 2°41.073 178.9 12.4 167 28.9
2006-04-27 12:18:52 51°21.459 2°41.193 168 12.7 159 29.5
2006-04-27 12:19:52 51°21.261 2°41.31 169 12.8 159 27.4
2006-04-27 12:20:52 51°21.074 2°41.472 156.6 13.1 147 26.5
2006-04-27 12:21:52 51°20.91 2°41.69 146.1 13.1 134 26.9
2006-04-27 12:22:52 51°20.771 2°41.971 134.1 13.8 124 23.9
2006-04-27 12:23:52 51°20.649 2°42.292 133.3 14.1 123 20.1
2006-04-27 12:24:52 51°20.52 2°42.606 133.1 14.1 123 24.2
2006-04-27 12:25:52 51°20.391 2°42.919 133.1 14.1 123 26.4
2006-04-27 12:26:52 51°20.262 2°43.231 131.3 14 122 28.7
2006-04-27 12:27:52 51°20.149 2°43.557 129.7 14 121 29.2
2006-04-27 12:28:52 51°20.036 2°43.882 128.1 13.9 121 28.1
2006-04-27 12:29:52 51°19.92 2°44.193 127.7 13.6 119 28
2006-04-27 12:30:52 51°19.819 2°44.515 125.8 13.5 117 26.1
2006-04-27 12:31:52 51°19.723 2°44.845 126.1 13.7 116 24.3
2006-04-27 12:32:52 51°19.623 2°45.176 126.2 13.7 116 20.2
2006-04-27 12:33:52 51°19.525 2°45.518 124 14.3 114 15.5
2006-04-27 12:34:52 51°19.424 2°45.859 124.8 14.2 117 17.7
2006-04-27 12:35:52 51°19.323 2°46.196 124.1 13.9 116 22.2
2006-04-27 12:36:52 51°19.223 2°46.533 124 14.2 116 24.1
2006-04-27 12:37:52 51°19.126 2°46.871 123.1 14.1 114 23.7
2006-04-27 12:38:52 51°19.027 2°47.211 123.6 14.2 114 23
2006-04-27 12:39:52 51°18.929 2°47.55 123.9 14 114 21.4
2006-04-27 12:40:52 51°18.833 2°47.888 123.2 14 112 19.6
2006-04-27 12:41:52 51°18.74 2°48.227 124.8 13.9 115 16.9
2006-04-27 12:42:52 51°18.635 2°48.551 124.3 13.8 115 15.1
2006-04-27 12:43:52 51°18.534 2°48.88 125.7 13.7 117 12.6
2006-04-27 12:44:52 51°18.435 2°49.212 124.8 13.8 116 13.2
2006-04-27 12:45:52 51°18.333 2°49.542 125.3 13.8 117 15.3
2006-04-27 12:46:52 51°18.234 2°49.87 123.4 13.7 115 16.6
2006-04-27 12:47:52 51°18.135 2°50.197 124.8 13.7 116 16.6
2006-04-27 12:48:52 51°18.037 2°50.526 124 13.7 116 15.7
2006-04-27 12:49:52 51°17.936 2°50.849 123 13.7 115 14.9
2006-04-27 12:50:52 51°17.832 2°51.17 125.2 13.7 118 13.4
2006-04-27 12:51:52 51°17.715 2°51.477 128.7 13.5 121 12.7
2006-04-27 12:52:52 51°17.595 2°51.774 134.9 13.2 126 12.9
2006-04-27 12:53:52 51°17.449 2°52.036 146.5 13.1 138 13.3
2006-04-27 12:54:52 51°17.279 2°52.246 156.3 12.9 149 13.1
2006-04-27 12:55:52 51°17.092 2°52.408 161.3 12.7 154 12.7
2006-04-27 12:56:52 51°16.899 2°52.564 161.1 13 153 12.7
2006-04-27 12:57:52 51°16.711 2°52.732 159.1 12.8 152 13.2
2006-04-27 12:58:52 51°16.521 2°52.897 159.7 13 151 14.3
2006-04-27 12:59:52 51°16.332 2°53.07 159.6 13.1 149 14.6
2006-04-27 13:00:52 51°16.139 2°53.218 166.5 12.7 158 14.4
2006-04-27 13:01:51 51°15.949 2°53.358 164.7 12.8 156 14.1
2006-04-27 13:02:52 51°15.753 2°53.514 160.4 12.9 152 13.6
2006-04-27 13:03:52 51°15.562 2°53.67 158.8 13 151 13
2006-04-27 13:04:52 51°15.373 2°53.84 157.3 13 150 12.5
2006-04-27 13:05:52 51°15.184 2°54.002 158.6 12.9 152 11.9
2006-04-27 13:06:52 51°14.997 2°54.174 155.7 13 149 11.4
2006-04-27 13:07:52 51°14.864 2°54.339 150.7 9.4 138 11.9
2006-04-27 13:08:52 51°14.728 2°54.512 153.6 11.1 143 12.2
2006-04-27 13:09:52 51°14.577 2°54.707 148.7 12.1 140 12.2
2006-04-27 13:10:51 51°14.429 2°54.927 142.2 12.5 133 12.9
2006-04-27 13:11:52 51°14.325 2°55.141 130.5 7.5 128 12.9
2006-04-27 13:12:52 51°14.258 2°55.277 135 6.7 132 12.7
2006-04-27 13:13:51 51°14.166 2°55.382 154 6.9 152 12.7
2006-04-27 13:14:52 51°14.065 2°55.46 158.1 6.6 154 12.7
2006-04-27 13:15:51 51°13.961 2°55.535 157.4 7.1 155 12.6
2006-04-27 13:16:51 51°13.859 2°55.608 157.7 6.1 154 12.7
2006-04-27 13:17:51 51°13.776 2°55.687 147.6 5.6 144 12.4
2006-04-27 13:18:51 51°13.713 2°55.789 131 5.2 129 12.9
2006-04-27 13:19:51 51°13.664 2°55.897 127 4.9 124 11.7
2006-04-27 13:20:51 51°13.625 2°55.993 123.5 3.8 121 11.7
2006-04-27 13:21:51 51°13.605 2°56.07 106.6 2.6 105 11.1
2006-04-27 13:22:52 51°13.6 2°56.093 108.7 0.3 134 -999
2006-04-27 13:23:51 51°13.6 2°56.1 105.8 0.1 22 7.9